createdAt,value
2019-02-11T00:02:26.002Z,87.31
2019-02-11T00:04:57.288Z,87.15
2019-02-11T00:07:28.921Z,87.28
2019-02-11T00:10:00.298Z,87.27
2019-02-11T00:12:31.607Z,87.70
2019-02-11T00:15:03.063Z,86.48
2019-02-11T00:17:35.137Z,86.61
2019-02-11T00:20:06.883Z,86.97
2019-02-11T00:22:38.131Z,86.69
2019-02-11T00:25:09.987Z,85.91
2019-02-11T00:27:41.355Z,85.19
2019-02-11T00:30:12.869Z,85.42
2019-02-11T00:32:44.379Z,84.77
2019-02-11T00:35:15.629Z,84.54
2019-02-11T00:37:47.641Z,84.88
2019-02-11T00:40:19.320Z,84.85
2019-02-11T00:42:51.022Z,85.40
2019-02-11T00:45:23.746Z,84.04
2019-02-11T00:47:55.147Z,84.34
2019-02-11T00:50:26.642Z,83.72
2019-02-11T00:52:58.020Z,83.46
2019-02-11T00:55:29.397Z,84.03
2019-02-11T00:58:00.661Z,84.05
2019-02-11T01:00:32.129Z,83.55
2019-02-11T01:03:03.481Z,83.49
2019-02-11T01:05:34.707Z,84.37
2019-02-11T01:08:05.996Z,83.99
2019-02-11T01:10:37.258Z,84.21
2019-02-11T01:13:08.851Z,84.49
2019-02-11T01:15:40.391Z,84.82
2019-02-11T01:18:11.660Z,84.97
2019-02-11T01:20:42.933Z,85.50
2019-02-11T01:23:14.250Z,85.22
2019-02-11T01:25:45.699Z,85.24
2019-02-11T01:28:17.247Z,84.60
2019-02-11T01:30:48.649Z,83.62
2019-02-11T01:33:19.995Z,83.77
2019-02-11T01:35:51.327Z,83.35
2019-02-11T01:38:22.555Z,84.14
2019-02-11T01:40:54.158Z,84.24
2019-02-11T01:43:25.520Z,84.23
2019-02-11T01:45:56.829Z,83.41
2019-02-11T01:48:28.133Z,83.58
2019-02-11T01:50:59.479Z,84.00
2019-02-11T01:53:31.175Z,83.83
2019-02-11T01:56:02.536Z,83.57
2019-02-11T01:58:34.199Z,83.43
2019-02-11T02:01:05.543Z,83.20
2019-02-11T02:03:36.988Z,81.36
2019-02-11T02:06:08.312Z,80.99
2019-02-11T02:08:39.875Z,78.72
2019-02-11T02:11:11.543Z,79.72
2019-02-11T02:13:44.803Z,78.72
2019-02-11T02:16:15.900Z,78.49
2019-02-11T02:18:47.483Z,79.01
2019-02-11T02:21:19.000Z,78.34
2019-02-11T02:23:50.303Z,79.53
2019-02-11T02:26:21.822Z,79.86
2019-02-11T02:28:53.507Z,79.79
2019-02-11T02:31:25.737Z,79.51
2019-02-11T02:33:57.464Z,78.77
2019-02-11T02:36:28.683Z,79.02
2019-02-11T02:39:00.101Z,79.14
2019-02-11T02:41:31.823Z,78.19
2019-02-11T02:44:03.178Z,78.65
2019-02-11T02:46:34.485Z,78.31
2019-02-11T02:49:05.844Z,78.55
2019-02-11T02:51:37.589Z,77.87
2019-02-11T02:54:09.320Z,77.59
2019-02-11T02:56:40.683Z,78.10
2019-02-11T02:59:12.040Z,78.72
2019-02-11T03:01:43.609Z,78.90
2019-02-11T03:04:15.326Z,77.97
2019-02-11T03:06:46.600Z,78.25
2019-02-11T03:09:17.935Z,78.72
2019-02-11T03:11:49.257Z,78.78
2019-02-11T03:14:20.646Z,78.63
2019-02-11T03:16:52.021Z,79.31
2019-02-11T03:19:23.723Z,79.47
2019-02-11T03:21:55.116Z,78.30
2019-02-11T03:24:26.510Z,78.26
2019-02-11T03:26:57.965Z,78.59
2019-02-11T03:29:29.362Z,78.21
2019-02-11T03:32:01.047Z,78.51
2019-02-11T03:34:32.411Z,78.53
2019-02-11T03:37:03.820Z,78.55
2019-02-11T03:39:35.508Z,78.96
2019-02-11T03:42:06.907Z,78.09
2019-02-11T03:44:38.210Z,78.57
2019-02-11T03:47:09.524Z,79.56
2019-02-11T03:49:41.009Z,79.88
2019-02-11T03:52:12.591Z,79.45
2019-02-11T03:54:43.985Z,80.21
2019-02-11T03:57:15.442Z,80.12
2019-02-11T03:59:46.810Z,80.12
2019-02-11T04:02:18.396Z,79.88
2019-02-11T04:04:49.912Z,80.80
2019-02-11T04:07:21.326Z,80.81
2019-02-11T04:09:52.771Z,81.63
2019-02-11T04:12:24.198Z,82.46
2019-02-11T04:14:55.533Z,81.71
2019-02-11T04:17:26.954Z,81.72
2019-02-11T04:19:58.375Z,81.99
2019-02-11T04:22:29.713Z,83.84
2019-02-11T04:25:01.363Z,83.59
2019-02-11T04:27:33.256Z,85.02
2019-02-11T04:30:04.833Z,85.93
2019-02-11T04:32:36.146Z,86.26
2019-02-11T04:35:08.187Z,86.91
2019-02-11T04:37:39.482Z,86.55
2019-02-11T04:40:12.025Z,87.08
2019-02-11T04:42:43.854Z,87.73
2019-02-11T04:45:15.859Z,88.04
2019-02-11T04:47:47.277Z,88.20
2019-02-11T04:50:18.532Z,87.49
2019-02-11T04:52:49.897Z,87.24
2019-02-11T04:55:21.620Z,88.25
2019-02-11T04:57:52.886Z,88.61
2019-02-11T05:00:24.652Z,88.43
2019-02-11T05:02:56.305Z,88.65
2019-02-11T05:05:28.731Z,88.65
2019-02-11T05:08:00.013Z,89.67
2019-02-11T05:10:31.263Z,90.07
2019-02-11T05:13:02.608Z,90.22
2019-02-11T05:15:34.068Z,90.82
2019-02-11T05:18:05.526Z,90.72
2019-02-11T05:20:36.926Z,90.87
2019-02-11T05:23:08.329Z,91.27
2019-02-11T05:25:39.705Z,91.33
2019-02-11T05:28:11.543Z,91.59
2019-02-11T05:30:42.827Z,91.89
2019-02-11T05:33:14.104Z,91.92
2019-02-11T05:35:45.347Z,91.80
2019-02-11T05:38:16.788Z,92.15
2019-02-11T05:40:48.236Z,92.09
2019-02-11T05:43:19.838Z,92.21
2019-02-11T05:45:51.746Z,92.36
2019-02-11T05:48:22.991Z,92.71
2019-02-11T05:50:54.445Z,92.96
2019-02-11T05:53:25.979Z,93.20
2019-02-11T05:55:57.556Z,92.87
2019-02-11T05:58:29.064Z,93.04
2019-02-11T06:01:00.944Z,92.74
2019-02-11T06:03:32.303Z,93.07
2019-02-11T06:06:04.733Z,93.42
2019-02-11T06:08:36.484Z,93.02
2019-02-11T06:11:07.810Z,93.18
2019-02-11T06:13:38.954Z,93.39
2019-02-11T06:16:11.408Z,93.40
2019-02-11T06:18:42.742Z,93.69
2019-02-11T06:21:14.081Z,93.81
2019-02-11T06:23:45.365Z,93.89
2019-02-11T06:26:17.325Z,94.06
2019-02-11T06:28:48.952Z,94.26
2019-02-11T06:31:20.725Z,94.36
2019-02-11T06:33:52.027Z,94.23
2019-02-11T06:36:23.926Z,94.46
2019-02-11T06:38:55.912Z,94.41
2019-02-11T06:41:27.677Z,94.74
2019-02-11T06:43:58.874Z,94.76
2019-02-11T06:46:30.264Z,94.72
2019-02-11T06:49:01.708Z,94.78
2019-02-11T06:51:32.972Z,94.83
2019-02-11T06:54:04.374Z,94.77
2019-02-11T06:56:36.584Z,94.84
2019-02-11T06:59:08.243Z,94.65
2019-02-11T07:01:39.911Z,94.71
2019-02-11T07:04:11.546Z,94.61
2019-02-11T07:06:42.941Z,94.49
2019-02-11T07:09:14.349Z,94.60
2019-02-11T07:11:45.987Z,94.29
2019-02-11T07:14:17.393Z,94.54
2019-02-11T07:16:48.763Z,94.49
2019-02-11T07:19:20.308Z,94.54
2019-02-11T07:21:51.704Z,94.49
2019-02-11T07:24:23.031Z,94.55
2019-02-11T07:26:54.510Z,94.30
2019-02-11T07:29:25.976Z,94.43
2019-02-11T07:31:57.278Z,94.42
2019-02-11T07:34:28.488Z,94.24
2019-02-11T07:36:59.642Z,94.28
2019-02-11T07:39:31.860Z,94.46
2019-02-11T07:42:27.997Z,94.44
2019-02-11T07:45:02.158Z,94.19
2019-02-11T07:47:33.475Z,94.11
2019-02-11T07:50:04.861Z,94.07
2019-02-11T07:52:36.152Z,94.17
2019-02-11T07:55:07.578Z,93.99
2019-02-11T07:57:39.138Z,93.89
2019-02-11T08:00:11.044Z,93.56
2019-02-11T08:02:42.269Z,93.66
2019-02-11T08:05:13.594Z,93.85
2019-02-11T08:07:45.272Z,93.82
2019-02-11T08:10:16.816Z,93.54
2019-02-11T08:12:47.961Z,93.68
2019-02-11T08:15:19.094Z,93.29
2019-02-11T08:17:50.296Z,93.83
2019-02-11T08:20:21.681Z,93.22
2019-02-11T08:22:52.821Z,92.59
2019-02-11T08:25:24.340Z,92.14
2019-02-11T08:27:55.740Z,92.37
2019-02-11T08:30:26.945Z,92.21
2019-02-11T08:32:58.230Z,92.20
2019-02-11T08:35:29.753Z,92.41
2019-02-11T08:38:00.977Z,92.58
2019-02-11T08:40:32.517Z,92.24
2019-02-11T08:43:03.815Z,93.00
2019-02-11T08:45:35.014Z,92.83
2019-02-11T08:48:06.230Z,92.88
2019-02-11T08:50:37.596Z,92.93
2019-02-11T08:53:08.934Z,92.95
2019-02-11T08:55:40.496Z,93.16
2019-02-11T08:58:12.035Z,93.16
2019-02-11T09:00:43.182Z,93.10
2019-02-11T09:03:14.546Z,92.64
2019-02-11T09:05:45.820Z,92.07
2019-02-11T09:08:17.160Z,92.26
2019-02-11T09:10:48.524Z,92.55
2019-02-11T09:13:19.945Z,91.64
2019-02-11T09:15:55.357Z,90.89
2019-02-11T09:18:24.389Z,91.31
2019-02-11T09:20:55.599Z,90.87
2019-02-11T09:23:27.080Z,90.82
2019-02-11T09:25:58.191Z,91.17
2019-02-11T09:28:29.496Z,91.51
2019-02-11T09:31:00.819Z,91.85
2019-02-11T09:33:31.945Z,90.66
2019-02-11T09:36:03.558Z,91.72
2019-02-11T09:38:35.774Z,91.91
2019-02-11T09:41:07.055Z,91.62
2019-02-11T09:43:38.267Z,91.90
2019-02-11T09:46:09.585Z,91.92
2019-02-11T09:48:40.839Z,92.51
2019-02-11T09:51:12.505Z,92.94
2019-02-11T09:53:44.770Z,93.23
2019-02-11T09:56:16.074Z,92.64
2019-02-11T09:58:47.205Z,92.61
2019-02-11T10:01:18.761Z,93.28
2019-02-11T10:03:50.010Z,93.07
2019-02-11T10:06:21.298Z,93.09
2019-02-11T10:08:52.609Z,92.79
2019-02-11T10:11:23.772Z,92.76
2019-02-11T10:13:54.879Z,93.22
2019-02-11T10:16:26.391Z,93.51
2019-02-11T10:18:57.906Z,93.16
2019-02-11T10:21:29.511Z,92.97
2019-02-11T10:24:00.738Z,94.06
2019-02-11T10:26:32.414Z,94.17
2019-02-11T10:29:03.887Z,94.67
2019-02-11T10:31:35.395Z,94.66
2019-02-11T10:34:06.906Z,94.88
2019-02-11T10:36:38.891Z,94.78
2019-02-11T10:39:10.191Z,94.79
2019-02-11T10:41:42.990Z,94.46
2019-02-11T10:44:14.510Z,94.72
2019-02-11T10:46:45.628Z,94.35
2019-02-11T10:49:17.051Z,94.27
2019-02-11T10:51:48.387Z,94.14
2019-02-11T10:54:19.983Z,93.81
2019-02-11T10:56:51.551Z,94.04
2019-02-11T10:59:22.839Z,93.31
2019-02-11T11:01:54.255Z,92.50
2019-02-11T11:04:25.495Z,91.87
2019-02-11T11:06:56.889Z,90.87
2019-02-11T11:09:28.284Z,91.54
2019-02-11T11:11:59.597Z,92.26
2019-02-11T11:14:31.236Z,91.20
2019-02-11T11:17:02.683Z,90.58
2019-02-11T11:19:33.995Z,90.93
2019-02-11T11:22:05.276Z,91.36
2019-02-11T11:24:36.450Z,91.74
2019-02-11T11:27:08.011Z,91.69
2019-02-11T11:29:39.497Z,91.63
2019-02-11T11:32:10.777Z,90.01
2019-02-11T11:34:42.267Z,90.32
2019-02-11T11:37:15.113Z,89.61
2019-02-11T11:39:46.405Z,88.07
2019-02-11T11:42:17.992Z,89.05
2019-02-11T11:44:49.541Z,88.62
2019-02-11T11:47:20.829Z,88.24
2019-02-11T11:49:52.472Z,88.46
2019-02-11T11:52:24.758Z,86.87
2019-02-11T11:54:55.922Z,86.97
2019-02-11T11:57:27.439Z,86.77
2019-02-11T11:59:59.049Z,86.57
2019-02-11T12:02:30.334Z,87.07
2019-02-11T12:05:01.568Z,86.02
2019-02-11T12:07:34.277Z,86.12
2019-02-11T12:10:06.482Z,84.87
2019-02-11T12:12:38.456Z,84.94
2019-02-11T12:15:09.981Z,84.43
2019-02-11T12:17:41.920Z,84.75
2019-02-11T12:20:13.727Z,84.35
2019-02-11T12:22:45.300Z,85.17
2019-02-11T12:25:17.620Z,85.17
2019-02-11T12:27:49.241Z,85.01
2019-02-11T12:30:23.732Z,83.16
2019-02-11T12:32:56.109Z,83.32
2019-02-11T12:35:27.866Z,82.86
2019-02-11T12:37:59.210Z,82.93
2019-02-11T12:40:30.534Z,82.96
2019-02-11T12:43:02.025Z,80.27
2019-02-11T12:45:33.552Z,82.25
2019-02-11T12:48:05.158Z,81.31
2019-02-11T12:50:36.938Z,81.03
2019-02-11T12:53:08.147Z,80.88
2019-02-11T12:55:39.438Z,82.65
2019-02-11T12:58:10.564Z,82.37
2019-02-11T13:00:41.801Z,82.01
2019-02-11T13:03:13.189Z,80.33
2019-02-11T13:05:46.311Z,79.32
2019-02-11T13:08:17.597Z,80.75
2019-02-11T13:10:49.280Z,80.98
2019-02-11T13:13:20.480Z,79.80
2019-02-11T13:16:00.999Z,78.66
2019-02-11T13:18:25.007Z,78.37
2019-02-11T13:20:57.375Z,78.17
2019-02-11T13:23:28.589Z,78.28
2019-02-11T13:25:59.754Z,77.65
2019-02-11T13:28:31.278Z,78.26
2019-02-11T13:31:02.639Z,79.30
2019-02-11T13:33:33.765Z,78.84
2019-02-11T13:36:05.926Z,78.53
2019-02-11T13:38:37.050Z,78.55
2019-02-11T13:41:08.384Z,80.46
2019-02-11T13:43:41.530Z,78.93
2019-02-11T13:46:12.403Z,79.35
2019-02-11T13:48:45.195Z,78.35
2019-02-11T13:51:16.833Z,79.32
2019-02-11T13:53:48.719Z,79.13
2019-02-11T13:56:20.040Z,79.04
2019-02-11T13:58:52.779Z,79.68
2019-02-11T14:01:24.389Z,78.42
2019-02-11T14:03:55.677Z,79.16
2019-02-11T14:06:27.321Z,79.20
2019-02-11T14:08:58.618Z,79.74
2019-02-11T14:11:30.565Z,79.42
2019-02-11T14:14:04.030Z,80.30
2019-02-11T14:16:35.640Z,79.44
2019-02-11T14:19:07.529Z,79.48
2019-02-11T14:21:39.194Z,79.17
2019-02-11T14:24:10.439Z,78.13
2019-02-11T14:26:41.669Z,78.99
2019-02-11T14:29:13.128Z,79.27
2019-02-11T14:31:44.990Z,78.87
2019-02-11T14:34:16.355Z,79.19
2019-02-11T14:36:47.811Z,78.95
2019-02-11T14:39:19.437Z,79.01
2019-02-11T14:41:50.895Z,78.66
2019-02-11T14:44:22.181Z,78.59
2019-02-11T14:46:53.857Z,79.29
2019-02-11T14:49:25.078Z,79.00
2019-02-11T14:51:56.828Z,78.98
2019-02-11T14:54:28.108Z,79.18
2019-02-11T14:56:59.453Z,79.82
2019-02-11T14:59:30.675Z,78.53
2019-02-11T15:02:01.817Z,78.53
2019-02-11T15:04:33.279Z,78.47
2019-02-11T15:07:04.834Z,78.87
2019-02-11T15:09:35.978Z,79.05
2019-02-11T15:12:07.385Z,79.07
2019-02-11T15:14:38.689Z,79.32
2019-02-11T15:17:09.893Z,79.64
2019-02-11T15:19:41.040Z,79.61
2019-02-11T15:22:12.452Z,79.88
2019-02-11T15:24:43.951Z,80.18
2019-02-11T15:27:17.290Z,80.99
2019-02-11T15:29:48.204Z,80.59
2019-02-11T15:32:19.515Z,79.96
2019-02-11T15:34:50.747Z,80.03
2019-02-11T15:37:22.237Z,79.62
2019-02-11T15:39:53.767Z,78.66
2019-02-11T15:42:24.945Z,79.80
2019-02-11T15:44:56.861Z,79.26
2019-02-11T15:47:27.992Z,79.30
2019-02-11T15:49:59.137Z,79.79
2019-02-11T15:52:30.376Z,79.74
2019-02-11T15:55:01.570Z,79.60
2019-02-11T15:57:32.791Z,79.46
2019-02-11T16:00:04.373Z,79.15
2019-02-11T16:02:35.850Z,80.16
2019-02-11T16:05:08.118Z,80.11
2019-02-11T16:07:39.345Z,80.46
2019-02-11T16:10:16.743Z,80.07
2019-02-11T16:12:48.053Z,80.79
2019-02-11T16:15:19.463Z,80.23
2019-02-11T16:17:50.922Z,79.83
2019-02-11T16:20:22.303Z,80.46
2019-02-11T16:22:53.609Z,80.55
2019-02-11T16:25:25.236Z,81.02
2019-02-11T16:28:16.134Z,80.79
2019-02-11T16:30:47.701Z,80.70
2019-02-11T16:33:19.100Z,80.25
2019-02-11T16:35:50.427Z,79.86
2019-02-11T16:38:21.713Z,80.48
2019-02-11T16:40:53.159Z,80.05
2019-02-11T16:43:24.539Z,80.65
2019-02-11T16:45:55.967Z,79.99
2019-02-11T16:48:27.410Z,80.21
2019-02-11T16:50:59.346Z,80.03
2019-02-11T16:53:30.982Z,79.18
2019-02-11T16:56:02.405Z,79.55
2019-02-11T16:58:34.008Z,79.05
2019-02-11T17:01:05.616Z,79.49
2019-02-11T17:03:37.204Z,79.39
2019-02-11T17:06:08.709Z,79.73
2019-02-11T17:08:40.486Z,79.08
2019-02-11T17:11:12.130Z,79.21
2019-02-11T17:13:44.177Z,79.59
2019-02-11T17:16:15.606Z,80.31
2019-02-11T17:18:46.982Z,80.86
2019-02-11T17:21:18.381Z,80.72
2019-02-11T17:23:49.793Z,81.04
2019-02-11T17:26:21.121Z,81.21
2019-02-11T17:28:52.476Z,81.56
2019-02-11T17:31:24.065Z,81.92
2019-02-11T17:33:55.547Z,82.69
2019-02-11T17:36:26.943Z,82.23
2019-02-11T17:38:58.301Z,82.92
2019-02-11T17:41:29.874Z,82.50
2019-02-11T17:44:01.268Z,81.83
2019-02-11T17:46:33.957Z,82.22
2019-02-11T17:49:05.554Z,82.74
2019-02-11T17:51:37.936Z,82.23
2019-02-11T17:54:09.601Z,82.13
2019-02-11T17:56:42.422Z,82.16
2019-02-11T17:59:13.952Z,82.26
2019-02-11T18:01:45.403Z,82.20
2019-02-11T18:04:17.152Z,82.93
2019-02-11T18:06:49.208Z,82.11
2019-02-11T18:09:20.526Z,82.59
2019-02-11T18:11:52.248Z,82.54
2019-02-11T18:14:23.627Z,82.58
2019-02-11T18:16:55.356Z,82.90
2019-02-11T18:19:26.779Z,83.20
2019-02-11T18:21:58.168Z,82.76
2019-02-11T18:24:29.791Z,83.69
2019-02-11T18:27:01.120Z,82.64
2019-02-11T18:29:32.609Z,83.20
2019-02-11T18:32:03.937Z,82.96
2019-02-11T18:34:35.268Z,83.10
2019-02-11T18:37:06.708Z,83.05
2019-02-11T18:39:38.939Z,83.41
2019-02-11T18:42:10.239Z,83.30
2019-02-11T18:44:41.746Z,83.19
2019-02-11T18:47:13.392Z,82.96
2019-02-11T18:49:44.767Z,83.19
2019-02-11T18:52:16.378Z,84.01
2019-02-11T18:54:47.993Z,83.27
2019-02-11T18:57:19.676Z,84.12
2019-02-11T18:59:50.928Z,84.02
2019-02-11T19:02:22.389Z,84.61
2019-02-11T19:04:53.919Z,83.96
2019-02-11T19:07:25.454Z,83.42
2019-02-11T19:09:57.051Z,82.77
2019-02-11T19:12:29.025Z,82.33
2019-02-11T19:15:00.490Z,82.81
2019-02-11T19:17:31.933Z,82.26
2019-02-11T19:20:03.688Z,83.38
2019-02-11T19:22:35.182Z,83.20
2019-02-11T19:25:07.678Z,83.51
2019-02-11T19:27:39.134Z,83.38
2019-02-11T19:30:18.066Z,83.27
2019-02-11T19:32:49.436Z,82.62
2019-02-11T19:35:20.791Z,82.23
2019-02-11T19:37:54.401Z,82.12
2019-02-11T19:40:26.235Z,82.41
2019-02-11T19:42:57.959Z,82.14
2019-02-11T19:45:29.759Z,82.20
2019-02-11T19:48:01.208Z,82.79
2019-02-11T19:50:32.600Z,82.63
2019-02-11T19:53:03.901Z,82.58
2019-02-11T19:55:35.373Z,82.38
2019-02-11T19:58:06.883Z,82.35
2019-02-11T20:00:38.284Z,82.34
2019-02-11T20:03:09.791Z,81.63
2019-02-11T20:05:41.456Z,81.96
2019-02-11T20:08:12.769Z,82.15
2019-02-11T20:10:44.040Z,81.97
2019-02-11T20:13:15.473Z,81.46
2019-02-11T20:15:46.920Z,81.45
2019-02-11T20:18:18.763Z,81.90
2019-02-11T20:20:50.356Z,81.74
2019-02-11T20:23:21.822Z,82.38
2019-02-11T20:25:53.277Z,82.34
2019-02-11T20:28:24.924Z,82.36
2019-02-11T20:30:56.961Z,82.69
2019-02-11T20:33:28.663Z,83.04
2019-02-11T20:36:00.241Z,83.01
2019-02-11T20:38:31.648Z,83.69
2019-02-11T20:41:03.196Z,83.89
2019-02-11T20:43:34.819Z,83.55
2019-02-11T20:46:06.200Z,83.25
2019-02-11T20:48:38.134Z,83.63
2019-02-11T20:51:09.468Z,83.52
2019-02-11T20:53:40.871Z,83.35
2019-02-11T20:56:12.305Z,83.29
2019-02-11T20:58:48.144Z,83.42
2019-02-11T21:01:19.505Z,83.48
2019-02-11T21:03:51.066Z,83.56
2019-02-11T21:06:22.557Z,83.30
2019-02-11T21:08:54.774Z,83.95
2019-02-11T21:11:26.328Z,84.22
2019-02-11T21:13:57.660Z,84.01
2019-02-11T21:16:29.610Z,84.44
2019-02-11T21:19:00.950Z,84.59
2019-02-11T21:21:32.389Z,84.71
2019-02-11T21:24:03.858Z,84.86
2019-02-11T21:26:35.249Z,84.62
2019-02-11T21:29:07.945Z,84.45
2019-02-11T21:31:39.476Z,84.71
2019-02-11T21:34:10.771Z,84.28
2019-02-11T21:36:42.466Z,84.68
2019-02-11T21:39:13.922Z,84.82
2019-02-11T21:41:45.392Z,85.17
2019-02-11T21:44:21.822Z,85.19
2019-02-11T21:46:53.355Z,85.30
2019-02-11T21:49:27.924Z,85.46
2019-02-11T21:51:59.405Z,85.74
2019-02-11T21:54:30.836Z,86.02
2019-02-11T21:57:02.655Z,86.43
2019-02-11T21:59:34.171Z,86.52
2019-02-11T22:02:05.586Z,87.07
2019-02-11T22:04:36.974Z,87.15
2019-02-11T22:07:08.851Z,87.50
2019-02-11T22:09:40.560Z,87.74
2019-02-11T22:12:12.577Z,87.50
2019-02-11T22:14:44.645Z,87.63
2019-02-11T22:17:18.728Z,87.99
2019-02-11T22:19:50.113Z,88.01
2019-02-11T22:22:22.087Z,88.07
2019-02-11T22:24:53.913Z,88.16
2019-02-11T22:27:25.324Z,88.46
2019-02-11T22:29:58.320Z,88.64
2019-02-11T22:32:29.790Z,88.54
2019-02-11T22:35:01.240Z,88.67
2019-02-11T22:37:33.307Z,88.80
2019-02-11T22:40:05.376Z,88.84
2019-02-11T22:42:36.722Z,88.96
2019-02-11T22:45:11.137Z,89.25
2019-02-11T22:47:43.010Z,89.35
2019-02-11T22:50:15.819Z,89.38
2019-02-11T22:52:47.871Z,89.19
2019-02-11T22:55:19.557Z,89.43
2019-02-11T22:57:50.942Z,89.87
2019-02-11T23:00:54.580Z,90.10
2019-02-11T23:03:26.026Z,90.49
2019-02-11T23:05:57.462Z,90.71
2019-02-11T23:08:30.735Z,90.98
2019-02-11T23:11:02.197Z,91.14
2019-02-11T23:13:33.706Z,91.22
2019-02-11T23:16:06.233Z,91.17
2019-02-11T23:18:37.920Z,91.56
2019-02-11T23:21:09.458Z,91.75
2019-02-11T23:23:41.364Z,91.93
2019-02-11T23:26:12.729Z,91.89
2019-02-11T23:28:44.485Z,91.88
2019-02-11T23:31:16.063Z,91.76
2019-02-11T23:33:47.736Z,91.97
2019-02-11T23:36:19.282Z,92.06
2019-02-11T23:38:51.147Z,92.18
2019-02-11T23:41:22.615Z,92.13
2019-02-11T23:43:54.323Z,92.27
2019-02-11T23:46:26.255Z,92.52
2019-02-11T23:48:57.580Z,92.44
2019-02-11T23:51:28.968Z,92.47
2019-02-11T23:54:00.646Z,92.48
2019-02-11T23:56:31.988Z,92.69
2019-02-11T23:59:03.262Z,92.37
